createdAt,value
2022-09-01T00:00:06.341Z,23.19
2022-09-01T00:02:06.331Z,23.20
2022-09-01T00:04:06.419Z,23.24
2022-09-01T00:06:06.451Z,23.31
2022-09-01T00:08:06.326Z,23.26
2022-09-01T00:10:06.487Z,23.25
2022-09-01T00:12:06.438Z,23.20
2022-09-01T00:14:06.361Z,23.21
2022-09-01T00:16:06.560Z,23.27
2022-09-01T00:18:06.425Z,23.25
2022-09-01T00:20:06.361Z,22.92
2022-09-01T00:22:06.459Z,22.88
2022-09-01T00:24:06.398Z,22.88
2022-09-01T00:26:06.513Z,22.89
2022-09-01T00:28:06.463Z,22.88
2022-09-01T00:30:06.466Z,22.94
2022-09-01T00:32:06.375Z,22.95
2022-09-01T00:34:06.453Z,23.11
2022-09-01T00:36:06.439Z,23.09
2022-09-01T00:38:06.431Z,23.12
2022-09-01T00:40:06.350Z,23.06
2022-09-01T00:42:06.361Z,23.10
2022-09-01T00:44:06.459Z,23.10
2022-09-01T00:46:06.484Z,23.19
2022-09-01T00:48:06.477Z,23.12
2022-09-01T00:50:06.482Z,23.08
2022-09-01T00:52:06.451Z,23.09
2022-09-01T00:54:06.424Z,23.11
2022-09-01T00:56:06.466Z,23.09
2022-09-01T00:58:06.444Z,23.10
2022-09-01T01:00:06.392Z,23.25
2022-09-01T01:02:06.404Z,23.04
2022-09-01T01:04:06.449Z,23.27
2022-09-01T01:06:06.516Z,23.11
2022-09-01T01:08:06.426Z,23.11
2022-09-01T01:10:06.639Z,22.82
2022-09-01T01:12:06.409Z,22.82
2022-09-01T01:14:06.506Z,22.81
2022-09-01T01:16:06.437Z,22.93
2022-09-01T01:18:06.534Z,22.96
2022-09-01T01:20:06.445Z,22.92
2022-09-01T01:22:06.399Z,22.80
2022-09-01T01:24:06.525Z,23.04
2022-09-01T01:26:06.469Z,23.09
2022-09-01T01:28:06.465Z,23.23
2022-09-01T01:30:06.514Z,23.17
2022-09-01T01:32:06.522Z,23.18
2022-09-01T01:34:06.422Z,23.09
2022-09-01T01:36:06.522Z,23.19
2022-09-01T01:38:06.551Z,23.10
2022-09-01T01:40:06.597Z,23.13
2022-09-01T01:42:06.509Z,23.11
2022-09-01T01:44:06.472Z,23.12
2022-09-01T01:46:06.593Z,23.06
2022-09-01T01:48:06.550Z,23.04
2022-09-01T01:50:06.509Z,23.15
2022-09-01T01:52:08.196Z,23.06
2022-09-01T01:54:06.490Z,23.08
2022-09-01T01:56:06.405Z,23.01
2022-09-01T01:58:06.605Z,23.23
2022-09-01T02:00:06.534Z,22.82
2022-09-01T02:02:06.533Z,22.85
2022-09-01T02:04:06.583Z,22.92
2022-09-01T02:06:06.456Z,22.83
2022-09-01T02:08:06.581Z,22.72
2022-09-01T02:10:06.470Z,22.74
2022-09-01T02:12:06.548Z,22.76
2022-09-01T02:14:06.596Z,22.96
2022-09-01T02:16:06.611Z,22.97
2022-09-01T02:18:06.549Z,23.03
2022-09-01T02:20:06.566Z,23.03
2022-09-01T02:22:06.606Z,22.97
2022-09-01T02:24:06.519Z,22.96
2022-09-01T02:26:16.037Z,22.96
2022-09-01T02:28:06.543Z,22.99
2022-09-01T02:30:06.455Z,22.96
2022-09-01T02:32:06.543Z,22.90
2022-09-01T02:34:06.599Z,22.90
2022-09-01T02:36:06.521Z,22.96
2022-09-01T02:38:06.639Z,22.97
2022-09-01T02:40:06.695Z,22.96
2022-09-01T02:42:06.615Z,23.01
2022-09-01T02:44:06.584Z,22.96
2022-09-01T02:46:06.661Z,22.95
2022-09-01T02:48:06.593Z,22.77
2022-09-01T02:50:06.581Z,22.66
2022-09-01T02:52:06.526Z,22.66
2022-09-01T02:54:06.646Z,22.67
2022-09-01T02:56:06.571Z,22.68
2022-09-01T02:58:06.624Z,22.81
2022-09-01T03:00:06.488Z,22.66
2022-09-01T03:02:06.664Z,22.64
2022-09-01T03:04:06.719Z,22.84
2022-09-01T03:06:06.659Z,22.96
2022-09-01T03:08:06.672Z,22.94
2022-09-01T03:10:06.618Z,22.96
2022-09-01T03:12:06.695Z,22.88
2022-09-01T03:14:06.557Z,22.83
2022-09-01T03:16:06.573Z,22.86
2022-09-01T03:18:06.560Z,22.91
2022-09-01T03:20:06.563Z,22.99
2022-09-01T03:22:06.671Z,22.83
2022-09-01T03:24:06.649Z,22.99
2022-09-01T03:26:06.668Z,22.86
2022-09-01T03:28:06.674Z,22.84
2022-09-01T03:30:06.699Z,22.95
2022-09-01T03:32:06.719Z,22.85
2022-09-01T03:34:06.594Z,22.88
2022-09-01T03:36:14.696Z,22.88
2022-09-01T03:38:06.723Z,22.67
2022-09-01T03:40:06.724Z,22.66
2022-09-01T03:42:06.709Z,22.67
2022-09-01T03:44:06.724Z,22.59
2022-09-01T03:46:06.754Z,22.66
2022-09-01T03:48:06.727Z,22.65
2022-09-01T03:50:06.668Z,22.60
2022-09-01T03:52:06.697Z,22.68
2022-09-01T03:54:06.663Z,22.80
2022-09-01T03:56:06.749Z,22.86
2022-09-01T03:58:06.689Z,22.85
2022-09-01T04:00:06.766Z,22.73
2022-09-01T04:02:06.873Z,22.56
2022-09-01T04:04:06.759Z,22.58
2022-09-01T04:06:06.685Z,22.55
2022-09-01T04:08:06.689Z,22.57
2022-09-01T04:10:06.773Z,22.58
2022-09-01T04:12:06.661Z,22.63
2022-09-01T04:14:06.757Z,22.56
2022-09-01T04:16:06.765Z,22.60
2022-09-01T04:18:06.736Z,22.49
2022-09-01T04:20:06.637Z,22.54
2022-09-01T04:22:06.719Z,22.51
2022-09-01T04:24:06.709Z,22.53
2022-09-01T04:26:06.743Z,22.54
2022-09-01T04:28:06.730Z,22.35
2022-09-01T04:30:06.653Z,22.43
2022-09-01T04:32:06.747Z,22.56
2022-09-01T04:34:06.753Z,22.55
2022-09-01T04:36:06.713Z,22.51
2022-09-01T04:38:06.777Z,22.56
2022-09-01T04:40:06.674Z,22.50
2022-09-01T04:42:06.734Z,22.74
2022-09-01T04:44:06.757Z,22.71
2022-09-01T04:46:06.839Z,22.78
2022-09-01T04:48:06.736Z,22.85
2022-09-01T04:50:06.765Z,22.74
2022-09-01T04:52:06.756Z,22.81
2022-09-01T04:54:06.776Z,22.82
2022-09-01T04:56:06.597Z,22.84
2022-09-01T04:58:10.097Z,22.82
2022-09-01T05:00:06.769Z,22.81
2022-09-01T05:02:06.764Z,22.76
2022-09-01T05:04:06.610Z,22.82
2022-09-01T05:06:06.831Z,22.87
2022-09-01T05:08:06.784Z,22.74
2022-09-01T05:10:06.822Z,22.82
2022-09-01T05:12:06.785Z,22.88
2022-09-01T05:14:06.785Z,22.97
2022-09-01T05:16:06.899Z,22.90
2022-09-01T05:18:06.812Z,22.60
2022-09-01T05:20:06.812Z,22.69
2022-09-01T05:22:06.657Z,22.72
2022-09-01T05:24:06.806Z,22.53
2022-09-01T05:26:06.706Z,22.55
2022-09-01T05:28:06.808Z,22.46
2022-09-01T05:30:06.692Z,22.62
2022-09-01T05:32:06.800Z,22.77
2022-09-01T05:34:06.828Z,22.88
2022-09-01T05:36:06.824Z,22.92
2022-09-01T05:38:06.794Z,22.85
2022-09-01T05:40:06.821Z,22.95
2022-09-01T05:42:06.824Z,22.90
2022-09-01T05:44:06.835Z,22.99
2022-09-01T05:46:07.474Z,22.87
2022-09-01T05:48:06.784Z,22.96
2022-09-01T05:50:09.900Z,22.96
2022-09-01T05:52:06.739Z,23.11
2022-09-01T05:54:06.678Z,23.13
2022-09-01T05:56:06.841Z,23.17
2022-09-01T05:58:06.864Z,23.10
2022-09-01T06:00:06.761Z,23.23
2022-09-01T06:02:06.856Z,23.25
2022-09-01T06:04:06.824Z,23.15
2022-09-01T06:06:06.720Z,23.26
2022-09-01T06:08:06.878Z,22.67
2022-09-01T06:10:06.788Z,22.69
2022-09-01T06:12:07.058Z,22.62
2022-09-01T06:14:06.844Z,22.58
2022-09-01T06:16:06.934Z,22.66
2022-09-01T06:18:06.849Z,22.74
2022-09-01T06:20:06.861Z,22.69
2022-09-01T06:22:06.853Z,22.97
2022-09-01T06:24:06.888Z,23.26
2022-09-01T06:26:06.853Z,23.30
2022-09-01T06:28:06.813Z,23.42
2022-09-01T06:30:06.932Z,23.42
2022-09-01T06:32:06.764Z,23.49
2022-09-01T06:34:06.884Z,23.50
2022-09-01T06:36:06.874Z,23.48
2022-09-01T06:38:06.922Z,23.48
2022-09-01T06:40:06.855Z,23.63
2022-09-01T06:42:06.912Z,23.65
2022-09-01T06:44:11.084Z,23.66
2022-09-01T06:46:06.895Z,23.70
2022-09-01T06:48:06.734Z,23.78
2022-09-01T06:50:06.883Z,23.81
2022-09-01T06:52:06.792Z,23.75
2022-09-01T06:54:10.850Z,23.67
2022-09-01T06:56:06.916Z,23.73
2022-09-01T06:58:07.240Z,23.24
2022-09-01T07:00:06.926Z,22.96
2022-09-01T07:02:06.928Z,22.94
2022-09-01T07:04:12.898Z,22.98
2022-09-01T07:06:06.927Z,22.84
2022-09-01T07:08:06.781Z,22.88
2022-09-01T07:10:18.498Z,22.95
2022-09-01T07:14:16.774Z,23.47
2022-09-01T07:16:35.437Z,23.65
2022-09-01T07:18:06.948Z,23.63
2022-09-01T07:20:25.727Z,23.75
2022-09-01T07:22:07.281Z,23.96
2022-09-01T07:24:08.742Z,23.81
2022-09-01T07:26:06.918Z,23.81
2022-09-01T07:28:06.950Z,23.86
2022-09-01T07:30:06.791Z,24.52
2022-09-01T07:36:29.724Z,24.57
2022-09-01T07:44:06.923Z,24.97
2022-09-01T07:46:36.581Z,24.85
2022-09-01T07:48:06.988Z,24.24
2022-09-01T07:50:37.442Z,23.96
2022-09-01T07:52:07.009Z,23.96
2022-09-01T07:54:06.849Z,24.74
2022-09-01T07:56:06.959Z,24.77
2022-09-01T07:58:06.962Z,24.85
2022-09-01T08:00:07.007Z,24.82
2022-09-01T08:02:06.950Z,24.52
2022-09-01T08:04:06.929Z,24.90
2022-09-01T08:06:07.003Z,24.52
2022-09-01T08:08:18.687Z,24.66
2022-09-01T08:10:06.909Z,25.20
2022-09-01T08:12:07.443Z,24.67
2022-09-01T08:14:06.858Z,25.13
2022-09-01T08:16:08.786Z,25.19
2022-09-01T08:18:07.015Z,24.62
2022-09-01T08:20:06.996Z,24.92
2022-09-01T08:22:07.006Z,24.66
2022-09-01T08:24:06.854Z,24.76
2022-09-01T08:26:07.013Z,24.72
2022-09-01T08:28:07.045Z,24.97
2022-09-01T08:30:06.958Z,24.93
2022-09-01T08:32:07.023Z,25.22
2022-09-01T08:34:06.964Z,24.86
2022-09-01T08:36:06.990Z,25.10
2022-09-01T08:38:07.064Z,24.95
2022-09-01T08:40:07.028Z,25.49
2022-09-01T08:42:06.970Z,24.82
2022-09-01T08:44:06.946Z,24.51
2022-09-01T08:46:07.087Z,25.47
2022-09-01T08:48:50.713Z,24.88
2022-09-01T08:50:07.003Z,25.33
2022-09-01T08:52:06.918Z,24.48
2022-09-01T08:54:07.088Z,25.37
2022-09-01T08:56:06.930Z,26.04
2022-09-01T08:58:07.059Z,25.03
2022-09-01T09:00:07.033Z,24.86
2022-09-01T09:02:06.960Z,25.88
2022-09-01T09:04:06.998Z,26.16
2022-09-01T09:06:07.042Z,26.26
2022-09-01T09:08:07.601Z,26.03
2022-09-01T09:10:07.062Z,25.34
2022-09-01T09:12:08.737Z,26.53
2022-09-01T09:14:06.910Z,25.15
2022-09-01T09:16:07.794Z,26.65
2022-09-01T09:18:07.071Z,26.46
2022-09-01T09:20:06.958Z,25.61
2022-09-01T09:22:07.085Z,26.62
2022-09-01T09:24:06.989Z,26.82
2022-09-01T09:26:08.206Z,26.93
2022-09-01T09:28:06.963Z,25.65
2022-09-01T09:30:09.368Z,25.23
2022-09-01T09:32:22.418Z,24.85
2022-09-01T09:34:07.129Z,24.93
2022-09-01T09:36:07.026Z,24.81
2022-09-01T09:38:06.986Z,24.81
2022-09-01T09:40:09.934Z,25.05
2022-09-01T09:42:07.066Z,25.23
2022-09-01T09:44:08.466Z,25.83
2022-09-01T09:46:23.184Z,25.64
2022-09-01T09:48:07.105Z,25.53
2022-09-01T09:50:07.081Z,26.89
2022-09-01T09:52:07.114Z,24.98
2022-09-01T09:54:07.098Z,24.81
2022-09-01T09:56:06.999Z,25.10
2022-09-01T09:58:07.127Z,25.90
2022-09-01T10:00:07.035Z,25.77
2022-09-01T10:02:07.119Z,25.78
2022-09-01T10:04:07.110Z,26.70
2022-09-01T10:06:07.096Z,26.14
2022-09-01T10:08:07.131Z,26.79
2022-09-01T10:10:07.134Z,26.45
2022-09-01T10:12:07.100Z,26.23
2022-09-01T10:14:07.145Z,25.97
2022-09-01T10:16:09.148Z,26.11
2022-09-01T10:18:20.571Z,27.48
2022-09-01T10:20:07.146Z,25.54
2022-09-01T10:22:07.195Z,25.44
2022-09-01T10:24:21.100Z,25.35
2022-09-01T10:26:09.579Z,25.09
2022-09-01T10:28:07.177Z,25.28
2022-09-01T10:30:18.729Z,25.19
2022-09-01T10:32:30.653Z,25.43
2022-09-01T10:34:07.147Z,26.12
2022-09-01T10:36:07.994Z,26.41
2022-09-01T10:38:08.256Z,26.35
2022-09-01T10:40:07.133Z,26.60
2022-09-01T10:42:07.162Z,26.23
2022-09-01T10:44:07.153Z,27.28
2022-09-01T10:46:09.074Z,25.10
2022-09-01T10:48:07.173Z,27.50
2022-09-01T10:50:09.914Z,25.77
2022-09-01T10:52:13.048Z,27.21
2022-09-01T10:54:07.172Z,26.94
2022-09-01T10:56:19.282Z,26.37
2022-09-01T10:59:29.868Z,27.44
2022-09-01T11:00:34.868Z,27.79
2022-09-01T11:02:23.926Z,25.39
2022-09-01T11:04:07.218Z,27.63
2022-09-01T11:06:13.278Z,27.88
2022-09-01T11:08:15.395Z,26.22
2022-09-01T11:10:11.018Z,26.11
2022-09-01T11:12:07.202Z,26.65
2022-09-01T11:14:07.236Z,26.78
2022-09-01T11:16:07.120Z,26.08
2022-09-01T11:18:07.119Z,27.55
2022-09-01T11:20:07.220Z,27.74
2022-09-01T11:22:07.204Z,27.78
2022-09-01T11:24:07.156Z,25.52
2022-09-01T11:26:21.429Z,25.58
2022-09-01T11:28:07.261Z,27.84
2022-09-01T11:30:07.211Z,27.13
2022-09-01T11:32:07.321Z,27.26
2022-09-01T11:34:07.203Z,26.65
2022-09-01T11:36:07.207Z,26.92
2022-09-01T11:38:07.255Z,26.81
2022-09-01T11:40:07.349Z,26.50
2022-09-01T11:42:07.221Z,26.43
2022-09-01T11:44:07.259Z,27.00
2022-09-01T11:46:07.280Z,25.90
2022-09-01T11:48:07.259Z,25.65
2022-09-01T11:50:07.246Z,25.71
2022-09-01T11:52:07.215Z,25.80
2022-09-01T11:54:07.240Z,25.79
2022-09-01T11:56:07.285Z,25.84
2022-09-01T11:58:07.311Z,25.85
2022-09-01T12:00:07.290Z,25.21
2022-09-01T12:02:07.367Z,25.04
2022-09-01T12:04:07.106Z,25.02
2022-09-01T12:06:07.235Z,25.28
2022-09-01T12:08:07.321Z,27.49
2022-09-01T12:10:07.257Z,25.83
2022-09-01T12:12:07.318Z,27.66
2022-09-01T12:14:11.064Z,27.74
2022-09-01T12:16:17.849Z,27.78
2022-09-01T12:18:07.157Z,27.49
2022-09-01T12:20:07.225Z,25.86
2022-09-01T12:22:07.251Z,25.65
2022-09-01T12:24:07.319Z,25.64
2022-09-01T12:26:07.310Z,25.80
2022-09-01T12:28:07.282Z,26.68
2022-09-01T12:30:07.179Z,26.22
2022-09-01T12:32:07.461Z,27.05
2022-09-01T12:34:07.299Z,26.02
2022-09-01T12:36:07.300Z,26.08
2022-09-01T12:38:09.693Z,25.90
2022-09-01T12:40:07.756Z,25.95
2022-09-01T12:42:07.334Z,25.94
2022-09-01T12:44:07.359Z,27.00
2022-09-01T12:46:07.189Z,27.81
2022-09-01T12:48:07.304Z,27.77
2022-09-01T12:50:07.245Z,27.88
2022-09-01T12:52:07.313Z,27.74
2022-09-01T12:54:09.413Z,27.70
2022-09-01T12:56:07.350Z,27.60
2022-09-01T12:58:07.371Z,27.60
2022-09-01T13:00:07.301Z,27.62
2022-09-01T13:02:07.440Z,26.64
2022-09-01T13:04:07.329Z,27.85
2022-09-01T13:06:08.018Z,27.73
2022-09-01T13:08:07.664Z,26.08
2022-09-01T13:10:07.656Z,26.09
2022-09-01T13:12:07.971Z,26.11
2022-09-01T13:14:07.998Z,26.09
2022-09-01T13:16:07.364Z,27.56
2022-09-01T13:18:07.331Z,27.70
2022-09-01T13:20:07.376Z,27.67
2022-09-01T13:22:07.343Z,27.81
2022-09-01T13:24:07.445Z,27.19
2022-09-01T13:26:07.370Z,25.61
2022-09-01T13:28:07.387Z,25.80
2022-09-01T13:30:07.243Z,25.95
2022-09-01T13:32:22.067Z,25.75
2022-09-01T13:34:20.740Z,25.90
2022-09-01T13:38:07.363Z,27.72
2022-09-01T13:40:07.381Z,27.42
2022-09-01T13:42:07.331Z,27.56
2022-09-01T13:44:07.381Z,27.48
2022-09-01T13:46:08.201Z,27.51
2022-09-01T13:48:17.619Z,27.76
2022-09-01T13:50:10.033Z,27.23
2022-09-01T13:52:07.385Z,27.83
2022-09-01T13:54:07.323Z,26.36
2022-09-01T13:56:07.449Z,27.63
2022-09-01T13:58:07.398Z,25.37
2022-09-01T14:00:07.256Z,27.45
2022-09-01T14:02:07.457Z,27.47
2022-09-01T14:04:07.464Z,27.47
2022-09-01T14:06:07.342Z,25.62
2022-09-01T14:08:07.414Z,25.51
2022-09-01T14:10:07.396Z,25.65
2022-09-01T14:12:07.359Z,26.04
2022-09-01T14:14:07.296Z,25.99
2022-09-01T14:16:07.391Z,25.76
2022-09-01T14:18:07.268Z,27.44
2022-09-01T14:20:07.404Z,26.38
2022-09-01T14:22:07.419Z,26.75
2022-09-01T14:24:07.416Z,26.08
2022-09-01T14:26:07.421Z,25.92
2022-09-01T14:28:07.489Z,25.90
2022-09-01T14:30:07.460Z,25.99
2022-09-01T14:32:07.454Z,27.49
2022-09-01T14:34:07.495Z,27.50
2022-09-01T14:36:09.281Z,27.50
2022-09-01T14:38:07.444Z,27.27
2022-09-01T14:40:07.327Z,27.40
2022-09-01T14:42:07.418Z,27.58
2022-09-01T14:44:07.373Z,27.53
2022-09-01T14:46:07.477Z,25.99
2022-09-01T14:48:07.439Z,25.93
2022-09-01T14:52:11.103Z,25.92
2022-09-01T14:54:07.467Z,25.99
2022-09-01T14:56:07.460Z,25.52
2022-09-01T14:58:07.426Z,25.90
2022-09-01T15:00:07.516Z,26.93
2022-09-01T15:02:07.419Z,25.86
2022-09-01T15:04:07.476Z,25.63
2022-09-01T15:06:07.474Z,26.06
2022-09-01T15:08:07.438Z,25.95
2022-09-01T15:10:07.482Z,25.65
2022-09-01T15:12:07.466Z,26.06
2022-09-01T15:14:07.525Z,25.82
2022-09-01T15:16:07.523Z,25.80
2022-09-01T15:18:07.394Z,25.75
2022-09-01T15:20:07.442Z,26.37
2022-09-01T15:22:07.501Z,27.36
2022-09-01T15:24:07.496Z,27.50
2022-09-01T15:26:07.383Z,27.48
2022-09-01T15:28:07.473Z,26.14
2022-09-01T15:30:07.415Z,27.47
2022-09-01T15:32:07.486Z,26.81
2022-09-01T15:34:07.411Z,27.59
2022-09-01T15:36:07.407Z,25.93
2022-09-01T15:38:07.418Z,25.77
2022-09-01T15:40:07.534Z,25.22
2022-09-01T15:42:07.438Z,27.53
2022-09-01T15:44:07.503Z,26.13
2022-09-01T15:46:07.515Z,26.00
2022-09-01T15:48:07.360Z,25.92
2022-09-01T15:50:07.532Z,25.80
2022-09-01T15:52:07.550Z,25.92
2022-09-01T15:54:07.554Z,25.75
2022-09-01T15:56:07.614Z,25.85
2022-09-01T15:58:07.411Z,26.11
2022-09-01T16:00:07.527Z,25.86
2022-09-01T16:02:07.521Z,25.65
2022-09-01T16:04:07.581Z,25.94
2022-09-01T16:06:07.555Z,24.59
2022-09-01T16:08:07.449Z,24.62
2022-09-01T16:10:07.554Z,24.95
2022-09-01T16:12:07.525Z,24.51
2022-09-01T16:14:07.578Z,24.43
2022-09-01T16:16:07.604Z,24.33
2022-09-01T16:18:07.505Z,24.44
2022-09-01T16:20:07.530Z,24.28
2022-09-01T16:22:07.570Z,24.33
2022-09-01T16:24:07.567Z,24.33
2022-09-01T16:26:07.541Z,24.65
2022-09-01T16:28:07.599Z,24.83
2022-09-01T16:30:07.408Z,24.84
2022-09-01T16:32:07.577Z,24.91
2022-09-01T16:34:07.473Z,24.51
2022-09-01T16:36:07.474Z,24.38
2022-09-01T16:38:07.497Z,24.66
2022-09-01T16:40:10.089Z,24.85
2022-09-01T16:42:07.584Z,24.66
2022-09-01T16:44:07.590Z,24.72
2022-09-01T16:46:07.703Z,24.87
2022-09-01T16:48:07.594Z,24.75
2022-09-01T16:50:07.545Z,24.82
2022-09-01T16:52:07.565Z,24.73
2022-09-01T16:54:07.514Z,24.74
2022-09-01T16:56:07.632Z,24.72
2022-09-01T16:58:07.556Z,24.66
2022-09-01T17:00:07.601Z,24.65
2022-09-01T17:02:07.655Z,24.15
2022-09-01T17:04:07.575Z,24.25
2022-09-01T17:06:11.818Z,24.18
2022-09-01T17:08:07.667Z,24.12
2022-09-01T17:10:07.576Z,24.24
2022-09-01T17:12:07.622Z,24.28
2022-09-01T17:14:07.623Z,24.10
2022-09-01T17:16:07.656Z,24.43
2022-09-01T17:18:07.572Z,24.31
2022-09-01T17:20:07.601Z,23.96
2022-09-01T17:22:07.628Z,24.28
2022-09-01T17:24:07.690Z,24.38
2022-09-01T17:26:07.601Z,24.61
2022-09-01T17:28:07.626Z,24.41
2022-09-01T17:30:07.650Z,24.43
2022-09-01T17:32:07.459Z,24.39
2022-09-01T17:34:07.529Z,24.38
2022-09-01T17:36:07.599Z,24.49
2022-09-01T17:38:07.685Z,24.51
2022-09-01T17:40:07.722Z,24.48
2022-09-01T17:42:07.627Z,24.39
2022-09-01T17:44:07.629Z,24.38
2022-09-01T17:46:07.702Z,24.37
2022-09-01T17:48:07.703Z,24.27
2022-09-01T17:50:07.554Z,24.28
2022-09-01T17:52:07.683Z,24.01
2022-09-01T17:54:07.673Z,24.10
2022-09-01T17:56:07.654Z,24.04
2022-09-01T17:58:07.676Z,24.05
2022-09-01T18:00:07.667Z,24.04
2022-09-01T18:02:07.739Z,24.10
2022-09-01T18:04:11.661Z,24.10
2022-09-01T18:06:07.676Z,24.20
2022-09-01T18:08:07.741Z,24.24
2022-09-01T18:10:07.587Z,23.96
2022-09-01T18:12:07.724Z,24.23
2022-09-01T18:14:07.636Z,24.26
2022-09-01T18:16:07.581Z,24.38
2022-09-01T18:18:07.703Z,24.16
2022-09-01T18:20:07.691Z,24.31
2022-09-01T18:22:07.690Z,24.20
2022-09-01T18:24:07.708Z,24.24
2022-09-01T18:26:08.715Z,24.30
2022-09-01T18:28:07.691Z,24.12
2022-09-01T18:32:07.681Z,24.18
2022-09-01T18:34:07.679Z,24.23
2022-09-01T18:36:07.609Z,24.20
2022-09-01T18:38:07.704Z,24.21
2022-09-01T18:40:07.678Z,24.15
2022-09-01T18:42:07.602Z,23.91
2022-09-01T18:44:07.709Z,23.95
2022-09-01T18:46:07.763Z,23.86
2022-09-01T18:48:07.748Z,23.96
2022-09-01T18:50:07.751Z,23.93
2022-09-01T18:52:07.696Z,23.96
2022-09-01T18:54:07.699Z,23.92
2022-09-01T18:56:07.789Z,24.14
2022-09-01T18:58:07.675Z,24.20
2022-09-01T19:00:17.033Z,24.28
2022-09-01T19:02:07.730Z,24.12
2022-09-01T19:04:10.220Z,24.12
2022-09-01T19:06:07.692Z,24.10
2022-09-01T19:08:07.741Z,24.07
2022-09-01T19:10:07.777Z,24.12
2022-09-01T19:12:07.758Z,24.12
2022-09-01T19:14:07.727Z,24.12
2022-09-01T19:16:07.830Z,24.06
2022-09-01T19:18:07.743Z,24.02
2022-09-01T19:20:07.767Z,24.09
2022-09-01T19:22:07.816Z,24.04
2022-09-01T19:24:07.705Z,24.09
2022-09-01T19:26:07.784Z,24.01
2022-09-01T19:28:07.675Z,23.98
2022-09-01T19:30:07.666Z,23.96
2022-09-01T19:32:07.784Z,23.72
2022-09-01T19:34:07.599Z,23.66
2022-09-01T19:36:07.800Z,23.79
2022-09-01T19:38:07.671Z,23.62
2022-09-01T19:40:07.877Z,23.72
2022-09-01T19:42:07.801Z,23.79
2022-09-01T19:44:07.807Z,23.65
2022-09-01T19:46:07.725Z,23.87
2022-09-01T19:48:07.687Z,23.87
2022-09-01T19:50:07.799Z,23.89
2022-09-01T19:52:07.704Z,23.91
2022-09-01T19:54:07.766Z,23.87
2022-09-01T19:56:07.825Z,23.97
2022-09-01T19:58:07.814Z,23.96
2022-09-01T20:00:07.822Z,23.96
2022-09-01T20:02:07.831Z,23.96
2022-09-01T20:04:07.723Z,23.95
2022-09-01T20:06:07.795Z,23.95
2022-09-01T20:08:07.739Z,23.91
2022-09-01T20:10:07.786Z,23.90
2022-09-01T20:12:07.795Z,23.87
2022-09-01T20:14:07.844Z,23.95
2022-09-01T20:16:07.955Z,23.90
2022-09-01T20:18:07.736Z,23.84
2022-09-01T20:20:07.861Z,23.87
2022-09-01T20:22:07.846Z,23.62
2022-09-01T20:24:07.836Z,23.61
2022-09-01T20:26:07.679Z,23.62
2022-09-01T20:28:07.834Z,23.70
2022-09-01T20:30:07.828Z,23.67
2022-09-01T20:32:07.856Z,23.48
2022-09-01T20:34:07.693Z,23.56
2022-09-01T20:36:07.724Z,23.66
2022-09-01T20:38:07.888Z,23.89
2022-09-01T20:40:07.814Z,23.80
2022-09-01T20:42:07.808Z,23.81
2022-09-01T20:44:07.883Z,23.89
2022-09-01T20:46:07.924Z,23.72
2022-09-01T20:48:07.765Z,23.78
2022-09-01T20:50:07.907Z,23.82
2022-09-01T20:52:07.694Z,23.84
2022-09-01T20:54:07.818Z,23.98
2022-09-01T20:56:07.859Z,23.81
2022-09-01T20:58:07.861Z,23.79
2022-09-01T21:00:07.887Z,23.81
2022-09-01T21:02:07.995Z,23.63
2022-09-01T21:04:07.772Z,23.80
2022-09-01T21:06:07.824Z,23.69
2022-09-01T21:08:07.814Z,23.88
2022-09-01T21:10:07.835Z,23.93
2022-09-01T21:12:07.891Z,23.54
2022-09-01T21:14:07.922Z,23.53
2022-09-01T21:16:07.882Z,23.50
2022-09-01T21:18:07.903Z,23.53
2022-09-01T21:20:07.890Z,23.55
2022-09-01T21:22:07.800Z,23.47
2022-09-01T21:24:07.832Z,23.39
2022-09-01T21:26:07.865Z,23.65
2022-09-01T21:28:07.960Z,23.68
2022-09-01T21:30:07.859Z,23.87
2022-09-01T21:32:07.948Z,23.65
2022-09-01T21:34:07.912Z,23.65
2022-09-01T21:36:07.805Z,23.65
2022-09-01T21:38:07.935Z,23.56
2022-09-01T21:40:07.974Z,23.66
2022-09-01T21:42:07.961Z,23.61
2022-09-01T21:44:07.923Z,23.66
2022-09-01T21:46:07.980Z,23.63
2022-09-01T21:48:07.826Z,23.59
2022-09-01T21:50:07.924Z,23.69
2022-09-01T21:52:07.823Z,23.59
2022-09-01T21:54:07.964Z,23.66
2022-09-01T21:56:07.932Z,23.66
2022-09-01T21:58:07.879Z,23.56
2022-09-01T22:00:07.916Z,23.59
2022-09-01T22:02:07.920Z,23.36
2022-09-01T22:04:07.894Z,23.27
2022-09-01T22:06:07.992Z,23.26
2022-09-01T22:08:07.991Z,23.40
2022-09-01T22:10:07.779Z,23.25
2022-09-01T22:12:08.003Z,23.42
2022-09-01T22:14:07.894Z,23.39
2022-09-01T22:16:08.045Z,23.47
2022-09-01T22:18:07.879Z,23.42
2022-09-01T22:20:07.955Z,23.53
2022-09-01T22:22:07.861Z,23.55
2022-09-01T22:24:07.845Z,23.49
2022-09-01T22:26:10.416Z,23.49
2022-09-01T22:28:08.028Z,23.53
2022-09-01T22:30:07.947Z,23.53
2022-09-01T22:32:07.956Z,23.57
2022-09-01T22:34:08.013Z,23.53
2022-09-01T22:36:07.934Z,23.53
2022-09-01T22:38:07.921Z,23.54
2022-09-01T22:40:08.047Z,23.62
2022-09-01T22:42:07.861Z,23.55
2022-09-01T22:44:07.974Z,23.48
2022-09-01T22:46:07.970Z,23.62
2022-09-01T22:48:07.999Z,23.43
2022-09-01T22:50:07.989Z,23.69
2022-09-01T22:52:07.981Z,23.26
2022-09-01T22:54:07.932Z,23.27
2022-09-01T22:56:07.866Z,23.40
2022-09-01T22:58:08.005Z,23.31
2022-09-01T23:00:07.991Z,23.28
2022-09-01T23:02:08.068Z,23.13
2022-09-01T23:04:07.985Z,23.25
2022-09-01T23:06:08.030Z,23.49
2022-09-01T23:08:07.982Z,23.39
2022-09-01T23:10:08.007Z,23.50
2022-09-01T23:12:07.909Z,23.43
2022-09-01T23:14:08.010Z,23.53
2022-09-01T23:16:08.059Z,23.43
2022-09-01T23:18:07.926Z,23.45
2022-09-01T23:20:07.852Z,23.43
2022-09-01T23:22:08.039Z,23.47
2022-09-01T23:24:08.054Z,23.47
2022-09-01T23:26:07.999Z,23.45
2022-09-01T23:28:07.990Z,23.50
2022-09-01T23:30:08.035Z,23.47
2022-09-01T23:32:08.103Z,23.53
2022-09-01T23:34:08.052Z,23.43
2022-09-01T23:36:08.045Z,23.53
2022-09-01T23:38:08.049Z,23.50
2022-09-01T23:40:08.187Z,23.18
2022-09-01T23:42:08.051Z,23.17
2022-09-01T23:44:08.092Z,23.19
2022-09-01T23:46:08.082Z,23.06
2022-09-01T23:48:08.009Z,23.25
2022-09-01T23:50:08.111Z,23.24
2022-09-01T23:52:08.000Z,23.10
2022-09-01T23:54:08.007Z,23.36
2022-09-01T23:56:08.050Z,23.31
2022-09-01T23:58:08.042Z,23.36
